Flight Track Log - Related Links

Times and Time Zones

All times are in EDT time to prevent confusion due to time zone crossing. See the N9791F flight status page for this flight to view local times or setup timezone preferences in your user account.

Time Position Orientation Groundspeed Altitude Reporting Facility
EDT Latitude Longitude Course Direction KTS MPH feet Rate Location/Type
Thu 02:32:10 PM 34.6839 -86.6875 353° North 89 102 900  Level Memphis Center
Thu 02:33:23 PM 34.7111 -86.6914 353° North 100 115 1,600 537 Climbing Memphis Center
Thu 02:34:24 PM 34.7222 -86.7136 301° West 96 110 2,100 446 Climbing Memphis Center
Thu 02:35:24 PM 34.7231 -86.7464 272° West 104 120 2,500 149 Climbing Memphis Center
Thu 02:36:25 PM 34.7222 -86.7819 268° West 109 125 2,400  Descending Memphis Center
Thu 02:37:25 PM 34.7233 -86.8222 272° West 109 125 2,500 50 Climbing Memphis Center
Thu 02:38:26 PM 34.7222 -86.8578 268° West 107 123 2,500 -49 Level Memphis Center
Thu 02:39:27 PM 34.7456 -86.8692 338° Northwest 113 130 2,400  Descending Memphis Center
Thu 02:40:27 PM 34.7744 -86.8606 14° North 112 129 2,500  Climbing Memphis Center
Thu 02:41:28 PM 34.8011 -86.8492 19° North 107 123 2,400  Descending Memphis Center
Thu 02:42:28 PM 34.8281 -86.8431 11° North 99 114 2,500  Climbing Memphis Center
Thu 02:43:29 PM 34.8433 -86.8628 313° West 116 133 2,400 49 Descending Memphis Center
Thu 02:44:30 PM 34.8464 -86.8981 276° West 100 115 2,600  Climbing Memphis Center
Thu 02:45:30 PM 34.8411 -86.9336 260° West 112 129 2,400 -298 Descending Memphis Center
Thu 02:46:31 PM 34.8142 -86.9397 191° South 107 123 2,000 -98 Descending Memphis Center
Thu 02:47:32 PM 34.7869 -86.9408 182° South 103 119 2,200 149 Climbing Memphis Center
Thu 02:48:32 PM 34.7622 -86.9444 187° South 97 112 2,300 -99 Climbing Memphis Center
Thu 02:49:33 PM 34.7372 -86.9456 182° South 93 107 2,000 -397 Descending Memphis Center
Thu 02:50:33 PM 34.7100 -86.9442 178° South 91 105 1,500 -470 Descending Memphis Center
Thu 02:51:28 PM 34.6892 -86.9475 187° South 84 97 1,100 -417 Descending Memphis Center
Thu 02:52:28 PM 34.6661 -86.9458 177° South 82 94 700 -142 Descending Memphis Center
Thu 02:53:35 PM 34.6433 -86.9467 182° South 91 105 800 443 Climbing Memphis Center
Thu 02:54:30 PM 34.6206 -86.9528 192° South 83 96 1,600 730 Climbing Memphis Center
Thu 02:55:30 PM 34.6211 -86.9803 271° West 95 109 2,200 600 Climbing Memphis Center

Login

Don't have an account? Register now (free) for customized features, flight alerts, and more!